Royalton, Wisconsin
Current Conditions -  °F | °C
As of 2:15 AM on Saturday 25 Oct 2014 (Local Time) from KPCZ Reporting Station
Broken Clouds Broken Clouds  
Wind Chill: 58°   Ceiling: 900
Heat Index: 58°   Visibility: 7mi
Dew Point: 56°   Wind: 6mph
Humidity: 93%   Direction: 270°W
Pressure: 29.84"   Gusts: NA
Location:  44.41°N, 88.86°W
Report Text: KPCZ 250715Z AUTO 27005KT 7SM BKN009 BKN014 14/13 A2984 RMK AO2 T01420131
Loading
Personal Weather Stations






























Interactive Weather Map
Tropical Storm Tracking
New forecast layout! Learn more

10-Day Weather Forecast

Advertisements
Track Severe Weather on mobile